Time;durP1;ratioP1;P1;durP2;ratioP2;P2;SDS_P1;SDS_P2;PMS_P1;PMS_P2;Temp;Humidity;BMP_temperature;BMP_pressure;BME280_temperature;BME280_humidity;BME280_pressure;Samples;Min_cycle;Max_cycle;Signal;HPM_P1;HPM_P2
2022/03/13 00:00:47;;;;;;;0.80;0.52;;;7.70;82.90;;;;;;5053158;28;20048;-78
2022/03/13 00:03:14;;;;;;;0.90;0.43;;;7.70;83.00;;;;;;5052854;28;20041;-78
2022/03/13 00:05:45;;;;;;;0.45;0.20;;;7.70;83.00;;;;;;5036497;28;20063;-78
2022/03/13 00:08:25;;;;;;;0.20;0.20;;;7.70;83.70;;;;;;5053476;28;20590;-78
2022/03/13 00:10:59;;;;;;;2.00;0.65;;;7.70;82.60;;;;;;5036208;28;20049;-78
2022/03/13 00:13:32;;;;;;;;;;;7.70;83.20;;;;;;5036906;28;20053;-78
2022/03/13 00:16:08;;;;;;;0.40;0.00;;;7.60;83.00;;;;;;5053250;28;20062;-78
2022/03/13 00:18:44;;;;;;;0.10;0.10;;;7.60;83.20;;;;;;5053046;28;20049;-78
2022/03/13 00:21:10;;;;;;;5.57;0.40;;;7.50;82.90;;;;;;5052950;28;20049;-78
2022/03/13 00:23:36;;;;;;;0.15;0.13;;;7.50;84.30;;;;;;5052850;28;20045;-78
2022/03/13 00:26:03;;;;;;;0.22;0.20;;;7.40;83.80;;;;;;5053482;28;20393;-78
2022/03/13 00:28:30;;;;;;;0.20;0.20;;;7.40;84.40;;;;;;5051951;28;20120;-78
2022/03/13 00:30:55;;;;;;;5.15;0.50;;;7.40;84.30;;;;;;5036116;28;20056;-78
2022/03/13 00:33:21;;;;;;;0.10;0.00;;;7.40;84.30;;;;;;5036248;28;20507;-78
2022/03/13 00:35:46;;;;;;;0.90;0.40;;;7.50;84.50;;;;;;5052866;28;20496;-78
2022/03/13 00:38:12;;;;;;;0.40;0.22;;;7.40;84.80;;;;;;5035720;28;20432;-78
2022/03/13 00:40:39;;;;;;;0.00;0.00;;;7.40;85.20;;;;;;5036023;28;20048;-78
2022/03/13 00:43:07;;;;;;;0.60;0.60;;;7.40;84.70;;;;;;5036450;28;20143;-78
2022/03/13 00:45:33;;;;;;;0.32;0.32;;;7.40;84.60;;;;;;5036062;28;20059;-78
2022/03/13 00:47:59;;;;;;;0.60;0.22;;;7.40;84.90;;;;;;5035876;28;20147;-78
2022/03/13 00:50:25;;;;;;;0.03;0.03;;;7.40;84.60;;;;;;5036084;28;20132;-79
2022/03/13 00:52:51;;;;;;;0.47;0.47;;;7.40;84.70;;;;;;5052397;28;20045;-78
2022/03/13 00:55:17;;;;;;;0.52;0.10;;;7.40;85.30;;;;;;5052512;28;20401;-78
2022/03/13 00:57:43;;;;;;;0.13;0.13;;;7.40;85.20;;;;;;5035800;28;20052;-78
2022/03/13 01:00:11;;;;;;;0.30;0.30;;;7.50;85.30;;;;;;5053008;28;20041;-78
2022/03/13 01:02:38;;;;;;;0.43;0.13;;;7.50;85.50;;;;;;5052424;28;20045;-78
2022/03/13 01:05:04;;;;;;;0.30;0.30;;;7.60;85.40;;;;;;5035817;28;20503;-78
2022/03/13 01:07:30;;;;;;;0.30;0.10;;;7.60;85.20;;;;;;5051773;28;20496;-78
2022/03/13 01:09:55;;;;;;;0.43;0.43;;;7.60;85.00;;;;;;5052302;28;20055;-78
2022/03/13 01:12:22;;;;;;;0.40;0.40;;;7.70;85.60;;;;;;5051726;28;20064;-78
2022/03/13 01:14:48;;;;;;;0.40;0.20;;;7.60;85.10;;;;;;5035688;28;20048;-78
2022/03/13 01:17:17;;;;;;;1.23;0.38;;;7.70;85.10;;;;;;5052312;28;20045;-79
2022/03/13 01:19:43;;;;;;;0.10;0.10;;;7.70;85.40;;;;;;5052253;28;20206;-78
2022/03/13 01:22:11;;;;;;;1.42;0.28;;;7.80;85.20;;;;;;5051637;28;20152;-78
2022/03/13 01:24:43;;;;;;;2.47;0.93;;;7.80;85.30;;;;;;5052075;28;20049;-78
2022/03/13 01:27:09;;;;;;;0.90;0.68;;;7.80;84.90;;;;;;5035509;28;20136;-78
2022/03/13 01:29:35;;;;;;;1.83;0.63;;;7.80;84.80;;;;;;5052227;28;20047;-78
2022/03/13 01:32:00;;;;;;;0.00;0.00;;;7.80;85.00;;;;;;5052146;28;20408;-78
2022/03/13 01:34:32;;;;;;;0.57;0.47;;;7.80;84.80;;;;;;5051806;28;20049;-78
2022/03/13 01:36:58;;;;;;;0.45;0.15;;;7.80;85.10;;;;;;5036140;28;20045;-78
2022/03/13 01:39:24;;;;;;;0.75;0.20;;;7.80;85.00;;;;;;5037879;28;20519;-78
2022/03/13 01:41:50;;;;;;;0.35;0.30;;;7.80;84.80;;;;;;5055541;28;20091;-78
2022/03/13 01:44:19;;;;;;;0.45;0.40;;;7.80;85.70;;;;;;5038960;28;20081;-79
2022/03/13 01:46:44;;;;;;;0.43;0.40;;;7.70;86.10;;;;;;5039070;28;20140;-78
2022/03/13 01:49:10;;;;;;;3.50;1.13;;;7.70;86.20;;;;;;5055473;28;20120;-78
2022/03/13 01:51:36;;;;;;;0.20;0.20;;;7.70;86.00;;;;;;5055802;28;20388;-79
2022/03/13 01:54:08;;;;;;;0.95;0.40;;;7.60;86.60;;;;;;5055742;28;20037;-79
2022/03/13 01:56:35;;;;;;;1.13;0.43;;;7.50;86.80;;;;;;5038959;28;20115;-78
2022/03/13 01:59:01;;;;;;;0.20;0.20;;;7.60;86.40;;;;;;5055699;28;20041;-79
2022/03/13 02:01:28;;;;;;;0.25;0.20;;;7.50;86.50;;;;;;5055241;28;20053;-78
2022/03/13 02:03:55;;;;;;;0.45;0.15;;;7.50;86.50;;;;;;5038729;28;20562;-78
2022/03/13 02:06:21;;;;;;;0.13;0.13;;;7.50;86.80;;;;;;5055406;28;20045;-78
2022/03/13 02:08:48;;;;;;;3.63;0.20;;;7.40;86.40;;;;;;5038739;28;20055;-78
2022/03/13 02:11:21;;;;;;;0.00;0.00;;;7.40;87.10;;;;;;5038547;28;20179;-78
2022/03/13 02:13:49;;;;;;;0.30;0.30;;;7.40;87.20;;;;;;5038792;28;20094;-78
2022/03/13 02:16:17;;;;;;;0.10;0.10;;;7.40;87.40;;;;;;5038671;28;20563;-79
2022/03/13 02:18:47;;;;;;;0.22;0.20;;;7.30;86.90;;;;;;5055324;28;20041;-79
2022/03/13 02:21:14;;;;;;;0.30;0.10;;;7.30;87.00;;;;;;5055222;28;20045;-79
2022/03/13 02:23:41;;;;;;;0.63;0.43;;;7.30;87.20;;;;;;5055275;28;20053;-78
2022/03/13 02:26:07;;;;;;;1.02;0.57;;;7.30;87.40;;;;;;5055040;28;20106;-79
2022/03/13 02:28:35;;;;;;;0.38;0.35;;;7.20;87.50;;;;;;5054887;28;20389;-78
2022/03/13 02:31:13;;;;;;;1.13;0.35;;;7.20;88.40;;;;;;5038198;28;20055;-79
2022/03/13 02:33:39;;;;;;;0.13;0.10;;;7.20;88.00;;;;;;5055216;28;20086;-78
2022/03/13 02:36:12;;;;;;;0.85;0.32;;;7.10;87.90;;;;;;5054895;28;20132;-78
2022/03/13 02:38:38;;;;;;;0.93;0.32;;;7.10;88.20;;;;;;5055014;28;20060;-78
2022/03/13 02:41:05;;;;;;;0.10;0.00;;;7.10;88.40;;;;;;5054657;28;20392;-78
2022/03/13 02:43:31;;;;;;;2.80;0.68;;;7.10;87.90;;;;;;5054827;28;20476;-78
2022/03/13 02:45:56;;;;;;;0.20;0.20;;;7.10;88.10;;;;;;5038163;28;20067;-79
2022/03/13 02:48:22;;;;;;;0.55;0.30;;;7.10;88.10;;;;;;5038650;28;20139;-78
2022/03/13 02:50:48;;;;;;;0.65;0.38;;;7.10;88.30;;;;;;5037329;28;20480;-79
2022/03/13 02:53:17;;;;;;;0.73;0.10;;;7.10;88.60;;;;;;5037967;28;20106;-78
2022/03/13 02:55:44;;;;;;;0.30;0.30;;;7.10;88.20;;;;;;5037855;28;20561;-78
2022/03/13 02:58:10;;;;;;;0.30;0.30;;;7.00;88.00;;;;;;5054758;28;20086;-79
2022/03/13 03:00:49;;;;;;;0.03;0.00;;;7.00;89.10;;;;;;5054886;28;20419;-78
2022/03/13 03:03:20;;;;;;;0.30;0.30;;;7.00;87.80;;;;;;5037421;28;20518;-79
2022/03/13 03:05:46;;;;;;;0.32;0.20;;;6.90;88.20;;;;;;5054451;28;20049;-79
2022/03/13 03:08:12;;;;;;;0.32;0.20;;;6.90;89.00;;;;;;5037210;28;20102;-78
2022/03/13 03:10:39;;;;;;;1.75;0.10;;;6.80;89.10;;;;;;5054026;28;20055;-79
2022/03/13 03:13:07;;;;;;;0.32;0.32;;;6.80;89.10;;;;;;5054123;28;20049;-78
2022/03/13 03:15:34;;;;;;;6.13;0.80;;;6.70;89.10;;;;;;5054231;28;20124;-79
2022/03/13 03:18:01;;;;;;;1.60;0.75;;;6.60;89.00;;;;;;5054128;28;20093;-78
2022/03/13 03:20:27;;;;;;;0.98;0.25;;;6.60;89.10;;;;;;5037517;28;20045;-78
2022/03/13 03:22:53;;;;;;;0.77;0.65;;;6.50;89.40;;;;;;5053962;28;20484;-78
2022/03/13 03:25:27;;;;;;;0.52;0.45;;;6.40;90.00;;;;;;5037572;28;20095;-79
2022/03/13 03:27:53;;;;;;;0.73;0.40;;;6.40;90.00;;;;;;5037535;28;20059;-78
2022/03/13 03:30:24;;;;;;;1.27;0.80;;;6.30;90.00;;;;;;5037374;28;20052;-79
2022/03/13 03:32:52;;;;;;;0.10;0.10;;;6.30;90.20;;;;;;5053895;28;20041;-78
2022/03/13 03:35:20;;;;;;;5.85;0.43;;;6.30;90.20;;;;;;5036993;28;20095;-78
2022/03/13 03:37:47;;;;;;;1.02;0.93;;;6.30;90.40;;;;;;5037146;28;20080;-78
2022/03/13 03:40:13;;;;;;;0.05;0.05;;;6.20;90.30;;;;;;5037238;28;20091;-78
2022/03/13 03:42:40;;;;;;;1.75;0.65;;;6.20;90.60;;;;;;5053520;28;20091;-78
2022/03/13 03:45:06;;;;;;;0.10;0.10;;;6.20;90.60;;;;;;5053686;28;20053;-78
2022/03/13 03:47:32;;;;;;;0.57;0.47;;;6.10;91.00;;;;;;5036828;28;20071;-79
2022/03/13 03:49:58;;;;;;;0.30;0.22;;;6.00;91.00;;;;;;5053478;28;20057;-78
2022/03/13 03:52:23;;;;;;;0.68;0.60;;;6.00;91.00;;;;;;5036547;28;20049;-78
2022/03/13 03:54:49;;;;;;;0.20;0.20;;;6.00;91.00;;;;;;5037076;28;20049;-78
2022/03/13 03:57:15;;;;;;;3.65;0.45;;;6.00;91.00;;;;;;5036678;28;20061;-78
2022/03/13 03:59:40;;;;;;;0.20;0.13;;;6.00;90.80;;;;;;5036755;28;20397;-78
2022/03/13 04:02:06;;;;;;;0.68;0.68;;;6.00;90.90;;;;;;5052996;28;20424;-79
2022/03/13 04:04:32;;;;;;;0.28;0.28;;;5.90;90.90;;;;;;5052980;28;20388;-79
2022/03/13 04:06:57;;;;;;;1.65;0.60;;;5.90;91.00;;;;;;5053186;28;20045;-78
2022/03/13 04:09:23;;;;;;;1.65;0.32;;;5.90;91.20;;;;;;5053184;28;20053;-79
2022/03/13 04:11:49;;;;;;;0.30;0.30;;;5.80;91.10;;;;;;5036052;28;20095;-78
2022/03/13 04:14:17;;;;;;;0.00;0.00;;;5.80;91.40;;;;;;5053057;28;20071;-78
2022/03/13 04:16:43;;;;;;;2.75;0.15;;;5.80;91.10;;;;;;5036595;28;20036;-78
2022/03/13 04:19:09;;;;;;;0.28;0.28;;;5.80;91.10;;;;;;5053017;28;20396;-79
2022/03/13 04:21:40;;;;;;;0.65;0.65;;;5.80;91.20;;;;;;5036196;28;20041;-78
2022/03/13 04:24:13;;;;;;;0.60;0.17;;;5.70;91.10;;;;;;5053128;28;20049;-78
2022/03/13 04:26:40;;;;;;;0.05;0.05;;;5.80;91.10;;;;;;5053194;28;20512;-78
2022/03/13 04:29:09;;;;;;;0.30;0.30;;;5.70;91.30;;;;;;5036154;28;20052;-79
2022/03/13 04:31:37;;;;;;;0.80;0.17;;;5.60;91.40;;;;;;5052765;28;20079;-78
2022/03/13 04:34:03;;;;;;;0.60;0.50;;;5.50;91.40;;;;;;5035644;28;20520;-78
2022/03/13 04:36:30;;;;;;;2.13;0.55;;;5.50;91.40;;;;;;5035962;28;20060;-78
2022/03/13 04:38:56;;;;;;;3.50;0.43;;;5.40;91.50;;;;;;5052297;28;20493;-78
2022/03/13 04:41:21;;;;;;;3.63;0.30;;;5.40;91.70;;;;;;5052459;28;20041;-78
2022/03/13 04:43:47;;;;;;;2.20;0.70;;;5.40;91.50;;;;;;5036248;28;20474;-78
2022/03/13 04:46:15;;;;;;;0.20;0.20;;;5.40;91.60;;;;;;5052399;28;20441;-78
2022/03/13 04:48:40;;;;;;;0.63;0.63;;;5.40;91.50;;;;;;5052531;28;20053;-78
2022/03/13 04:51:06;;;;;;;0.00;0.00;;;5.40;91.50;;;;;;5052585;28;20052;-78
2022/03/13 04:53:32;;;;;;;0.85;0.45;;;5.40;91.40;;;;;;5052539;28;20052;-78
2022/03/13 04:55:58;;;;;;;0.10;0.10;;;5.40;91.30;;;;;;5052617;28;20389;-78
2022/03/13 04:58:24;;;;;;;1.00;0.70;;;5.30;91.30;;;;;;5052594;28;20389;-79
2022/03/13 05:00:50;;;;;;;0.10;0.10;;;5.30;91.30;;;;;;5035550;28;20037;-78
2022/03/13 05:03:16;;;;;;;0.82;0.73;;;5.30;91.40;;;;;;5052395;28;20144;-78
2022/03/13 05:05:42;;;;;;;0.17;0.17;;;5.30;91.10;;;;;;5052971;28;20132;-78
2022/03/13 05:08:14;;;;;;;1.05;0.20;;;5.30;91.20;;;;;;5035707;28;20187;-79
2022/03/13 05:10:43;;;;;;;0.30;0.25;;;5.20;91.00;;;;;;5035910;28;20477;-79
2022/03/13 05:13:14;;;;;;;1.85;0.22;;;5.20;91.10;;;;;;5051818;28;20090;-79
2022/03/13 05:15:41;;;;;;;1.02;0.25;;;5.20;91.30;;;;;;5056648;28;20086;-79
2022/03/13 05:18:07;;;;;;;0.20;0.20;;;5.20;91.30;;;;;;5056444;28;20045;-79
2022/03/13 05:20:34;;;;;;;0.38;0.38;;;5.20;91.30;;;;;;5056258;28;20087;-78
2022/03/13 05:23:04;;;;;;;0.22;0.22;;;5.10;91.60;;;;;;5039688;28;20095;-78
2022/03/13 05:25:35;;;;;;;0.55;0.40;;;5.10;91.50;;;;;;5039657;28;20053;-78
2022/03/13 05:28:01;;;;;;;0.43;0.13;;;5.10;91.10;;;;;;5056332;28;20076;-78
2022/03/13 05:30:27;;;;;;;0.20;0.20;;;5.00;91.10;;;;;;5056234;28;20516;-78
2022/03/13 05:32:53;;;;;;;1.23;0.40;;;5.10;91.20;;;;;;5039571;28;20044;-79
2022/03/13 05:35:19;;;;;;;0.73;0.73;;;5.10;91.00;;;;;;5056062;28;20048;-78
2022/03/13 05:37:45;;;;;;;0.68;0.45;;;5.10;90.80;;;;;;5039685;28;20053;-78
2022/03/13 05:40:15;;;;;;;0.70;0.47;;;5.20;90.80;;;;;;5039243;28;20060;-79
2022/03/13 05:42:43;;;;;;;0.30;0.20;;;5.20;90.70;;;;;;5039379;28;20057;-78
2022/03/13 05:45:10;;;;;;;0.63;0.63;;;5.20;90.60;;;;;;5055894;28;20045;-79
2022/03/13 05:47:58;;;;;;;0.00;0.00;;;5.20;90.60;;;;;;5055891;28;20056;-78
2022/03/13 05:50:26;;;;;;;0.43;0.17;;;5.20;90.40;;;;;;5055823;28;20052;-79
2022/03/13 05:52:55;;;;;;;0.25;0.25;;;5.30;90.60;;;;;;5055717;28;20049;-79
2022/03/13 05:55:25;;;;;;;0.35;0.35;;;5.20;90.60;;;;;;5038909;28;20057;-79
2022/03/13 05:57:52;;;;;;;0.77;0.30;;;5.30;90.40;;;;;;5056208;28;20049;-78
2022/03/13 06:00:21;;;;;;;0.10;0.10;;;5.30;90.40;;;;;;5038761;28;20354;-79
2022/03/13 06:02:47;;;;;;;0.00;0.00;;;5.30;90.20;;;;;;5055566;28;20055;-79
2022/03/13 06:05:16;;;;;;;0.22;0.20;;;5.30;90.30;;;;;;5055571;28;20044;-78
2022/03/13 06:07:41;;;;;;;0.20;0.20;;;5.30;90.20;;;;;;5039260;28;20488;-78
2022/03/13 06:10:08;;;;;;;0.95;0.95;;;5.40;90.00;;;;;;5055979;28;20037;-79
2022/03/13 06:12:35;;;;;;;0.30;0.25;;;5.40;89.90;;;;;;5056598;28;20099;-79
2022/03/13 06:15:02;;;;;;;0.10;0.00;;;5.40;89.60;;;;;;5062917;28;20037;-78
2022/03/13 06:17:28;;;;;;;0.68;0.57;;;5.40;89.60;;;;;;5048083;28;20040;-78
2022/03/13 06:19:55;;;;;;;0.70;0.30;;;5.50;89.30;;;;;;5063436;28;20127;-79
2022/03/13 06:22:22;;;;;;;0.35;0.30;;;5.50;89.00;;;;;;5062505;28;20040;-80
2022/03/13 06:24:47;;;;;;;0.40;0.40;;;5.50;88.90;;;;;;5047110;28;20052;-78
2022/03/13 06:27:13;;;;;;;0.65;0.57;;;5.50;88.60;;;;;;5046228;28;20059;-82
2022/03/13 06:29:40;;;;;;;1.85;0.68;;;5.60;88.20;;;;;;5046229;28;20595;-78
2022/03/13 06:32:07;;;;;;;4.55;1.02;;;5.60;87.80;;;;;;5047943;28;20496;-78
2022/03/13 06:34:33;;;;;;;0.47;0.30;;;5.70;87.50;;;;;;5045949;28;20386;-78
2022/03/13 06:36:59;;;;;;;0.28;0.28;;;5.80;86.90;;;;;;5046403;28;20045;-78
2022/03/13 06:39:25;;;;;;;5.47;0.30;;;5.90;86.80;;;;;;5064287;28;20484;-78
2022/03/13 06:41:51;;;;;;;0.25;0.15;;;6.00;86.10;;;;;;5062435;28;20120;-79
2022/03/13 06:44:17;;;;;;;0.20;0.10;;;6.00;85.70;;;;;;5046394;28;20036;-78
2022/03/13 06:46:43;;;;;;;2.72;0.20;;;6.10;85.90;;;;;;5064067;28;20446;-79
2022/03/13 06:49:10;;;;;;;0.38;0.38;;;6.20;85.50;;;;;;5062209;28;20041;-78
2022/03/13 06:51:38;;;;;;;0.55;0.55;;;6.30;84.70;;;;;;5062964;28;20129;-79
2022/03/13 06:54:06;;;;;;;0.10;0.10;;;6.40;84.90;;;;;;5063831;28;20072;-78
2022/03/13 06:56:32;;;;;;;0.15;0.15;;;6.60;84.50;;;;;;5045890;28;20087;-79
2022/03/13 06:59:03;;;;;;;0.30;0.30;;;6.80;84.70;;;;;;5046705;28;20503;-79
2022/03/13 07:01:29;;;;;;;0.00;0.00;;;7.00;82.50;;;;;;5063648;28;20151;-78
2022/03/13 07:03:55;;;;;;;1.38;0.30;;;7.30;82.90;;;;;;5062275;28;20124;-78
2022/03/13 07:06:20;;;;;;;0.20;0.20;;;7.40;82.50;;;;;;5062942;28;20131;-78
2022/03/13 07:08:46;;;;;;;0.35;0.35;;;7.40;81.80;;;;;;5046104;28;20044;-77
2022/03/13 07:11:12;;;;;;;0.80;0.38;;;7.30;81.60;;;;;;5072133;28;20459;-78
2022/03/13 07:13:38;;;;;;;0.30;0.22;;;7.20;80.80;;;;;;5057671;28;20399;-78
2022/03/13 07:16:06;;;;;;;1.45;0.98;;;7.10;81.10;;;;;;5073977;28;20048;-78
2022/03/13 07:18:32;;;;;;;0.30;0.13;;;7.10;81.50;;;;;;5074832;28;20048;-78
2022/03/13 07:20:58;;;;;;;0.75;0.52;;;7.30;81.50;;;;;;5057420;28;20549;-78
2022/03/13 07:23:24;;;;;;;0.75;0.47;;;7.40;81.30;;;;;;5057762;28;20479;-78
2022/03/13 07:25:50;;;;;;;3.60;0.63;;;7.70;81.10;;;;;;5047114;28;20087;-78
2022/03/13 07:28:17;;;;;;;0.25;0.13;;;7.80;79.00;;;;;;5039824;28;20103;-78
2022/03/13 07:30:43;;;;;;;0.10;0.10;;;7.80;78.90;;;;;;5053940;28;20109;-78
2022/03/13 07:33:08;;;;;;;0.25;0.20;;;7.80;79.60;;;;;;5054582;28;20531;-78
2022/03/13 07:35:34;;;;;;;0.57;0.57;;;7.80;78.00;;;;;;5053925;28;20385;-78
2022/03/13 07:38:00;;;;;;;2.97;0.65;;;7.80;77.90;;;;;;5053453;28;20037;-78
2022/03/13 07:40:25;;;;;;;0.08;0.00;;;8.00;78.20;;;;;;5054021;28;20203;-78
2022/03/13 07:42:51;;;;;;;0.20;0.15;;;8.20;78.30;;;;;;5037211;28;20048;-78
2022/03/13 07:45:17;;;;;;;0.10;0.10;;;8.40;76.80;;;;;;5037353;28;20060;-78
2022/03/13 07:47:42;;;;;;;1.48;0.65;;;8.70;76.80;;;;;;5053865;28;20040;-78
2022/03/13 07:50:08;;;;;;;5.13;0.10;;;8.80;76.00;;;;;;5036689;28;20064;-78
2022/03/13 07:52:34;;;;;;;1.40;0.17;;;8.80;75.50;;;;;;5053416;28;20048;-78
2022/03/13 07:55:00;;;;;;;1.77;1.05;;;8.90;75.30;;;;;;5053412;28;20041;-78
2022/03/13 07:57:28;;;;;;;2.05;0.47;;;8.90;75.20;;;;;;5053452;28;20055;-78
2022/03/13 07:59:53;;;;;;;0.95;0.63;;;9.00;74.60;;;;;;5053326;28;20455;-78
2022/03/13 08:02:19;;;;;;;0.70;0.63;;;9.10;75.00;;;;;;5036504;28;20080;-78
2022/03/13 08:04:44;;;;;;;2.10;0.20;;;9.10;75.00;;;;;;5053530;28;20056;-78
2022/03/13 08:07:10;;;;;;;0.30;0.30;;;9.20;75.50;;;;;;5053027;28;20408;-78
2022/03/13 08:09:36;;;;;;;0.20;0.20;;;9.20;74.40;;;;;;5052900;28;20044;-78
2022/03/13 08:12:03;;;;;;;0.30;0.30;;;9.10;74.20;;;;;;5036351;28;20049;-78
2022/03/13 08:14:28;;;;;;;0.50;0.15;;;9.10;74.60;;;;;;5053069;28;20051;-79
2022/03/13 08:16:54;;;;;;;5.25;1.27;;;9.10;74.60;;;;;;5036401;28;20450;-79
2022/03/13 08:19:20;;;;;;;1.75;0.10;;;9.00;73.70;;;;;;5052859;28;20053;-79
2022/03/13 08:21:46;;;;;;;0.20;0.20;;;9.10;73.10;;;;;;5052744;28;20048;-79
2022/03/13 08:24:14;;;;;;;0.40;0.40;;;9.20;73.80;;;;;;5052888;28;20041;-79
2022/03/13 08:26:40;;;;;;;0.65;0.43;;;9.10;72.70;;;;;;5036328;28;20060;-78
2022/03/13 08:29:10;;;;;;;0.20;0.20;;;9.10;72.80;;;;;;5052977;28;20397;-78
2022/03/13 08:31:37;;;;;;;0.03;0.03;;;9.10;71.80;;;;;;5052811;28;20056;-78
2022/03/13 08:34:07;;;;;;;2.20;0.75;;;9.10;71.60;;;;;;5053223;28;20497;-78
2022/03/13 08:36:34;;;;;;;1.85;0.55;;;9.30;71.20;;;;;;5036366;28;20141;-78
2022/03/13 08:39:00;;;;;;;5.95;0.90;;;9.50;71.00;;;;;;5052958;28;20059;-78
2022/03/13 08:41:25;;;;;;;1.00;0.63;;;9.60;70.00;;;;;;5036204;28;20049;-78
2022/03/13 08:43:51;;;;;;;2.28;0.90;;;9.90;70.10;;;;;;5052751;28;20052;-78
2022/03/13 08:46:17;;;;;;;0.95;0.30;;;10.00;70.10;;;;;;5052668;28;20049;-78
2022/03/13 08:48:44;;;;;;;2.20;0.68;;;10.30;69.70;;;;;;5052178;28;20087;-79
2022/03/13 08:51:12;;;;;;;1.02;0.65;;;10.40;68.60;;;;;;5060647;28;20052;-79
2022/03/13 08:53:38;;;;;;;0.52;0.52;;;10.60;68.10;;;;;;5071525;28;20045;-78
2022/03/13 08:56:03;;;;;;;0.00;0.00;;;10.90;68.40;;;;;;5055931;28;20585;-78
2022/03/13 08:58:29;;;;;;;0.00;0.00;;;11.20;67.70;;;;;;5073401;28;20130;-78
2022/03/13 09:00:56;;;;;;;0.55;0.35;;;11.40;68.10;;;;;;5073141;28;20119;-78
2022/03/13 09:03:22;;;;;;;0.63;0.30;;;11.50;65.40;;;;;;5072934;28;20492;-78
2022/03/13 09:05:48;;;;;;;0.55;0.22;;;11.70;65.60;;;;;;5072572;28;20051;-78
2022/03/13 09:08:15;;;;;;;0.17;0.17;;;11.80;64.50;;;;;;5072526;28;20107;-78
2022/03/13 09:10:41;;;;;;;1.25;1.00;;;12.00;64.60;;;;;;5072491;28;20087;-79
2022/03/13 09:13:07;;;;;;;0.38;0.10;;;12.10;63.70;;;;;;5055427;28;20057;-79
2022/03/13 09:15:33;;;;;;;0.20;0.20;;;12.10;64.10;;;;;;5066312;28;20057;-78
2022/03/13 09:18:02;;;;;;;0.70;0.25;;;12.20;64.20;;;;;;5039096;28;20053;-78
2022/03/13 09:20:28;;;;;;;1.55;0.17;;;12.30;64.00;;;;;;5035710;28;20053;-78
2022/03/13 09:22:54;;;;;;;1.67;0.40;;;12.40;64.10;;;;;;5052418;28;20127;-78
2022/03/13 09:25:21;;;;;;;1.13;1.10;;;12.50;63.20;;;;;;5035431;28;20047;-79
2022/03/13 09:27:48;;;;;;;0.55;0.55;;;12.60;62.90;;;;;;5052276;28;20045;-78
2022/03/13 09:30:14;;;;;;;3.85;1.10;;;12.70;62.40;;;;;;5060181;28;20116;-78
2022/03/13 09:32:40;;;;;;;2.53;0.40;;;13.00;63.40;;;;;;5044344;28;20132;-78
2022/03/13 09:35:07;;;;;;;0.38;0.38;;;13.10;61.80;;;;;;5044860;28;20052;-78
2022/03/13 09:37:33;;;;;;;0.50;0.50;;;13.30;61.70;;;;;;5059880;28;20044;-79
2022/03/13 09:39:59;;;;;;;0.47;0.45;;;13.40;60.90;;;;;;5062380;28;20534;-79
2022/03/13 09:42:24;;;;;;;0.25;0.25;;;13.30;60.60;;;;;;5060864;28;20056;-78
2022/03/13 09:44:50;;;;;;;0.30;0.30;;;13.50;60.20;;;;;;5038872;28;20057;-79
2022/03/13 09:47:16;;;;;;;6.72;0.85;;;13.60;59.40;;;;;;5069866;28;20048;-79
2022/03/13 09:49:42;;;;;;;0.20;0.20;;;13.80;59.10;;;;;;5067451;28;20090;-79
2022/03/13 09:52:09;;;;;;;0.35;0.30;;;14.00;59.40;;;;;;5071216;28;20061;-79
2022/03/13 09:54:35;;;;;;;0.80;0.80;;;14.00;57.20;;;;;;5053112;28;20033;-79
2022/03/13 09:57:04;;;;;;;4.95;1.00;;;13.90;56.00;;;;;;5062144;28;20052;-78
2022/03/13 09:59:34;;;;;;;0.50;0.50;;;13.80;55.30;;;;;;5061293;28;20140;-78
2022/03/13 10:02:04;;;;;;;0.45;0.43;;;14.00;57.40;;;;;;5063963;28;20115;-78
2022/03/13 10:04:31;;;;;;;0.30;0.30;;;13.90;56.30;;;;;;5064421;28;20044;-78
2022/03/13 10:07:11;;;;;;;0.35;0.35;;;13.90;56.50;;;;;;5047727;28;20519;-78
2022/03/13 10:09:40;;;;;;;0.17;0.17;;;13.80;55.60;;;;;;5065427;28;20048;-78
2022/03/13 10:12:06;;;;;;;0.20;0.17;;;13.80;55.60;;;;;;5046578;28;20511;-78
2022/03/13 10:14:32;;;;;;;0.75;0.75;;;13.90;55.80;;;;;;5063318;28;20454;-78
2022/03/13 10:16:58;;;;;;;0.47;0.47;;;14.10;57.90;;;;;;5046597;28;20080;-78
2022/03/13 10:19:27;;;;;;;1.45;0.55;;;14.40;55.40;;;;;;5048418;28;20137;-78
2022/03/13 10:22:09;;;;;;;0.60;0.17;;;14.60;55.10;;;;;;5065402;28;20095;-78
2022/03/13 10:24:43;;;;;;;0.08;0.00;;;14.60;55.40;;;;;;5069476;28;20045;-78
2022/03/13 10:27:17;;;;;;;5.63;1.30;;;14.50;54.00;;;;;;5075226;28;20051;-78
2022/03/13 10:29:45;;;;;;;7.70;1.85;;;14.60;55.30;;;;;;5075198;28;20385;-78
2022/03/13 10:32:11;;;;;;;0.88;0.70;;;14.70;55.30;;;;;;5075124;28;20044;-78
2022/03/13 10:34:36;;;;;;;0.00;0.00;;;14.70;54.70;;;;;;5075096;28;20036;-78
2022/03/13 10:37:03;;;;;;;0.52;0.52;;;14.70;55.10;;;;;;5075046;28;20036;-78
2022/03/13 10:39:29;;;;;;;0.57;0.47;;;15.10;55.60;;;;;;5058381;28;20131;-78
2022/03/13 10:42:00;;;;;;;2.92;0.82;;;15.00;54.00;;;;;;5074447;28;20041;-78
2022/03/13 10:44:27;;;;;;;3.83;1.08;;;15.10;54.00;;;;;;5074698;28;20054;-78
2022/03/13 10:47:05;;;;;;;0.57;0.55;;;15.10;54.70;;;;;;5074685;28;20097;-78
2022/03/13 10:49:43;;;;;;;0.45;0.28;;;14.90;54.80;;;;;;5058097;28;20499;-78
2022/03/13 10:52:25;;;;;;;2.90;0.80;;;14.80;53.90;;;;;;5075507;28;20058;-78
2022/03/13 10:54:53;;;;;;;0.68;0.60;;;14.80;55.10;;;;;;5074735;28;20048;-78
2022/03/13 10:57:19;;;;;;;0.10;0.10;;;14.60;54.00;;;;;;5057971;28;20049;-78
2022/03/13 10:59:45;;;;;;;0.52;0.50;;;14.60;54.30;;;;;;5069097;28;20041;-78
2022/03/13 11:02:12;;;;;;;0.60;0.45;;;14.70;53.50;;;;;;5046868;28;20049;-77
2022/03/13 11:04:46;;;;;;;1.95;0.75;;;14.80;54.00;;;;;;5062013;28;20439;-77
2022/03/13 11:07:12;;;;;;;;;;;14.90;53.10;;;;;;5062031;28;20061;-77
2022/03/13 11:09:38;;;;;;;0.40;0.40;;;15.00;53.90;;;;;;5063693;28;19970;-77
2022/03/13 11:12:06;;;;;;;0.65;0.63;;;15.00;54.40;;;;;;5045035;28;20131;-77
2022/03/13 11:14:34;;;;;;;0.73;0.52;;;15.10;53.20;;;;;;5061409;28;20105;-77
2022/03/13 11:17:01;;;;;;;0.20;0.20;;;15.40;53.90;;;;;;5062502;28;20427;-77
2022/03/13 11:19:28;;;;;;;0.57;0.35;;;15.50;52.80;;;;;;5063323;28;20571;-76
2022/03/13 11:21:54;;;;;;;0.00;0.00;;;15.70;53.10;;;;;;5061146;28;20037;-77
2022/03/13 11:24:23;;;;;;;0.17;0.17;;;15.80;53.10;;;;;;5062847;28;20101;-77
2022/03/13 11:26:50;;;;;;;0.57;0.57;;;15.70;52.30;;;;;;5045837;28;20084;-77
2022/03/13 11:29:40;;;;;;;1.33;0.88;;;15.90;52.80;;;;;;5060602;28;21364;-77
2022/03/13 11:32:32;;;;;;;1.70;0.57;;;16.00;51.60;;;;;;5061829;28;20084;-77
2022/03/13 11:35:18;;;;;;;0.95;0.90;;;16.20;51.90;;;;;;5063396;28;20037;-77
2022/03/13 11:37:52;;;;;;;0.90;0.70;;;16.40;51.40;;;;;;5061392;28;20041;-77
2022/03/13 11:40:39;;;;;;;0.65;0.65;;;16.50;51.40;;;;;;5062583;28;20080;-78
2022/03/13 11:43:10;;;;;;;0.20;0.20;;;16.50;50.00;;;;;;5061585;28;20075;-78
2022/03/13 11:45:39;;;;;;;1.52;1.20;;;16.60;49.40;;;;;;5061157;28;20040;-77
2022/03/13 11:48:05;;;;;;;0.40;0.40;;;16.80;50.10;;;;;;5046813;28;20047;-79
2022/03/13 11:50:46;;;;;;;0.08;0.08;;;17.00;49.60;;;;;;5044950;28;20048;-79
2022/03/13 11:53:16;;;;;;;1.05;0.85;;;17.10;48.40;;;;;;5046184;28;20399;-79
2022/03/13 11:56:02;;;;;;;0.70;0.70;;;17.30;48.90;;;;;;5046399;28;20483;-78
2022/03/13 11:58:51;;;;;;;0.82;0.43;;;17.40;48.50;;;;;;5046265;28;20138;-79
2022/03/13 12:01:20;;;;;;;0.45;0.45;;;17.40;48.60;;;;;;5048410;28;20041;-79
2022/03/13 12:04:01;;;;;;;0.20;0.20;;;17.30;47.80;;;;;;5061039;28;20056;-79
2022/03/13 12:06:56;;;;;;;0.30;0.30;;;17.40;48.20;;;;;;5046669;28;20056;-79
2022/03/13 12:09:42;;;;;;;0.30;0.30;;;17.40;48.40;;;;;;5060044;28;20787;-79
2022/03/13 12:12:13;;;;;;;0.63;0.20;;;17.50;48.40;;;;;;5061492;28;20045;-78
2022/03/13 12:14:54;;;;;;;0.22;0.22;;;17.60;48.00;;;;;;5043962;28;20045;-77
2022/03/13 12:17:25;;;;;;;0.20;0.17;;;17.60;48.10;;;;;;5061108;28;20033;-78
2022/03/13 12:19:52;;;;;;;0.28;0.28;;;17.70;47.80;;;;;;5064174;28;20492;-78
2022/03/13 12:22:21;;;;;;;0.73;0.40;;;17.70;48.40;;;;;;5041172;28;20033;-77
2022/03/13 12:24:51;;;;;;;0.35;0.22;;;17.70;47.30;;;;;;5052534;28;20052;-77
2022/03/13 12:27:18;;;;;;;1.20;0.65;;;17.90;48.10;;;;;;5053511;28;20045;-77
2022/03/13 12:29:55;;;;;;;0.40;0.30;;;17.90;46.80;;;;;;5036251;28;20098;-77
2022/03/13 12:32:30;;;;;;;0.63;0.52;;;18.10;46.70;;;;;;5053174;28;20446;-77
2022/03/13 12:34:57;;;;;;;1.00;0.80;;;18.30;47.00;;;;;;5052697;28;20402;-77
2022/03/13 12:37:26;;;;;;;0.28;0.28;;;18.10;46.90;;;;;;5071928;28;20186;-77
2022/03/13 12:39:55;;;;;;;0.50;0.30;;;18.10;47.40;;;;;;5073001;28;20388;-77
2022/03/13 12:42:23;;;;;;;1.17;0.75;;;18.00;47.00;;;;;;5055979;28;20139;-77
2022/03/13 12:45:06;;;;;;;0.30;0.20;;;18.40;46.80;;;;;;5072711;28;20484;-77
2022/03/13 12:47:39;;;;;;;0.70;0.70;;;18.60;46.20;;;;;;5072954;28;20056;-77
2022/03/13 12:50:08;;;;;;;0.20;0.20;;;18.60;45.70;;;;;;5055949;28;20130;-77
2022/03/13 12:52:34;;;;;;;2.58;1.40;;;18.60;46.60;;;;;;5072580;28;20052;-77
2022/03/13 12:55:01;;;;;;;1.02;0.70;;;18.50;46.50;;;;;;5052565;28;20045;-77
2022/03/13 12:57:27;;;;;;;0.30;0.10;;;18.50;47.10;;;;;;5058561;28;20538;-77
2022/03/13 12:59:52;;;;;;;0.80;0.38;;;18.40;47.50;;;;;;5056296;28;20045;-77